createdAt,value
2019-02-17T00:00:45.981Z,77.30
2019-02-17T00:03:21.484Z,78.40
2019-02-17T00:05:56.822Z,78.50
2019-02-17T00:08:31.845Z,80.00
2019-02-17T00:11:06.913Z,78.90
2019-02-17T00:13:41.999Z,78.60
2019-02-17T00:16:17.069Z,79.00
2019-02-17T00:18:54.801Z,78.00
2019-02-17T00:21:30.743Z,78.70
2019-02-17T00:24:07.078Z,78.60
2019-02-17T00:26:42.100Z,79.00
2019-02-17T00:29:17.557Z,79.20
2019-02-17T00:31:52.910Z,79.50
2019-02-17T00:34:28.615Z,79.00
2019-02-17T00:37:05.123Z,80.30
2019-02-17T00:39:40.779Z,79.90
2019-02-17T00:42:15.802Z,79.60
2019-02-17T00:44:51.758Z,80.40
2019-02-17T00:47:26.783Z,80.70
2019-02-17T00:50:01.798Z,80.10
2019-02-17T00:52:37.880Z,80.20
2019-02-17T00:55:12.891Z,80.60
2019-02-17T00:57:48.899Z,80.00
2019-02-17T01:00:23.927Z,79.70
2019-02-17T01:02:59.807Z,79.80
2019-02-17T01:05:34.825Z,79.70
2019-02-17T01:08:10.166Z,80.30
2019-02-17T01:10:45.195Z,80.90
2019-02-17T01:13:20.645Z,81.80
2019-02-17T01:15:55.733Z,82.20
2019-02-17T01:18:30.833Z,82.00
2019-02-17T01:21:05.858Z,82.20
2019-02-17T01:23:40.903Z,82.70
2019-02-17T01:26:16.326Z,82.90
2019-02-17T01:28:51.356Z,82.90
2019-02-17T01:31:28.145Z,83.40
2019-02-17T01:34:06.520Z,83.80
2019-02-17T01:36:41.896Z,83.90
2019-02-17T01:39:17.162Z,84.10
2019-02-17T01:41:52.234Z,84.00
2019-02-17T01:47:02.327Z,84.10
2019-02-17T01:52:12.974Z,84.30
2019-02-17T02:02:35.345Z,79.60
2019-02-17T02:18:05.474Z,76.50
2019-02-17T02:33:37.493Z,78.10
2019-02-17T02:43:56.438Z,78.40
2019-02-17T02:49:06.882Z,77.60
2019-02-17T03:02:00.819Z,79.30
2019-02-17T03:04:37.127Z,78.70
2019-02-17T03:07:12.525Z,78.70
2019-02-17T03:20:09.184Z,78.50
2019-02-17T03:22:44.273Z,79.00
2019-02-17T03:25:19.290Z,80.50
2019-02-17T03:27:54.670Z,80.80
2019-02-17T03:30:29.778Z,80.30
2019-02-17T03:33:04.805Z,80.30
2019-02-17T03:40:49.427Z,81.30
2019-02-17T03:43:24.771Z,81.30
2019-02-17T03:45:59.897Z,81.70
2019-02-17T03:48:34.997Z,82.30
2019-02-17T03:51:10.039Z,81.80
2019-02-17T03:53:45.080Z,82.70
2019-02-17T03:56:20.104Z,82.70
2019-02-17T03:58:55.517Z,82.80
2019-02-17T04:01:30.623Z,83.20
2019-02-17T04:04:05.965Z,83.40
2019-02-17T04:06:42.624Z,83.50
2019-02-17T04:09:17.679Z,83.80
2019-02-17T04:11:52.704Z,84.40
2019-02-17T04:14:28.191Z,84.80
2019-02-17T04:17:03.294Z,84.10
2019-02-17T04:19:38.386Z,84.60
2019-02-17T04:22:13.779Z,85.00
2019-02-17T04:24:48.798Z,85.00
2019-02-17T04:27:24.020Z,85.10
2019-02-17T04:29:59.129Z,86.10
2019-02-17T04:32:34.255Z,85.90
2019-02-17T04:35:09.456Z,86.50
2019-02-17T04:37:44.576Z,86.10
2019-02-17T04:42:54.446Z,86.10
2019-02-17T04:45:29.485Z,86.20
2019-02-17T04:48:04.542Z,86.70
2019-02-17T04:50:40.505Z,86.80
2019-02-17T05:06:10.135Z,88.50
2019-02-17T05:11:19.798Z,88.90
2019-02-17T05:13:54.892Z,87.90
2019-02-17T05:19:05.779Z,87.80
2019-02-17T05:29:24.856Z,88.40
2019-02-17T05:31:59.955Z,88.50
2019-02-17T05:34:35.145Z,88.60
2019-02-17T05:39:46.696Z,88.40
2019-02-17T05:42:21.818Z,88.70
2019-02-17T05:44:56.929Z,88.30
2019-02-17T05:47:31.957Z,88.90
2019-02-17T05:50:07.917Z,89.20
2019-02-17T05:52:42.951Z,88.80
2019-02-17T05:55:18.975Z,88.70
2019-02-17T05:57:54.062Z,88.80
2019-02-17T06:00:30.724Z,88.80
2019-02-17T06:03:05.753Z,88.90
2019-02-17T06:05:40.784Z,89.10
2019-02-17T06:10:50.364Z,89.20
2019-02-17T06:13:25.464Z,89.30
2019-02-17T06:18:35.653Z,89.30
2019-02-17T06:26:22.733Z,90.00
2019-02-17T06:28:59.002Z,90.00
2019-02-17T06:31:35.111Z,90.20
2019-02-17T06:34:10.635Z,90.20
2019-02-17T06:36:46.612Z,90.00
2019-02-17T06:39:22.064Z,89.60
2019-02-17T06:41:57.485Z,89.10
2019-02-17T06:44:33.440Z,88.60
2019-02-17T06:47:10.180Z,87.70
2019-02-17T06:49:45.542Z,88.20
2019-02-17T06:52:23.517Z,87.20
2019-02-17T06:55:00.211Z,86.30
2019-02-17T06:57:36.894Z,85.20
2019-02-17T07:00:13.977Z,84.10
2019-02-17T07:02:49.412Z,82.90
2019-02-17T07:05:26.089Z,81.30
2019-02-17T07:08:01.570Z,78.80
2019-02-17T07:10:36.652Z,75.70
2019-02-17T07:13:12.629Z,72.80
2019-02-17T07:15:48.070Z,70.20
2019-02-17T07:18:23.619Z,67.80
2019-02-17T07:20:58.967Z,65.90
2019-02-17T07:23:33.997Z,64.00
2019-02-17T07:26:09.463Z,62.30
2019-02-17T07:28:46.733Z,60.50
2019-02-17T07:31:23.653Z,59.30
2019-02-17T07:33:58.691Z,59.10
2019-02-17T07:36:33.709Z,58.60
2019-02-17T07:49:28.218Z,55.10
2019-02-17T07:52:03.375Z,52.60
2019-02-17T07:54:39.086Z,51.70
2019-02-17T07:57:14.504Z,51.30
2019-02-17T07:59:49.545Z,51.20
2019-02-17T08:02:24.590Z,51.10
2019-02-17T08:04:59.625Z,50.30
2019-02-17T08:07:34.664Z,49.40
2019-02-17T08:10:10.674Z,48.70
2019-02-17T08:20:31.734Z,47.90
2019-02-17T08:25:44.268Z,46.90
2019-02-17T08:30:54.251Z,46.10
2019-02-17T08:33:30.309Z,45.50
2019-02-17T08:36:05.351Z,45.20
2019-02-17T08:41:15.928Z,44.40
2019-02-17T08:43:50.940Z,43.70
2019-02-17T08:46:25.991Z,43.20
2019-02-17T08:49:03.391Z,42.70
2019-02-17T08:51:39.422Z,41.90
2019-02-17T08:54:14.453Z,41.10
2019-02-17T08:56:49.496Z,40.00
2019-02-17T08:59:25.464Z,40.30
2019-02-17T09:02:05.921Z,40.70
2019-02-17T09:04:37.585Z,40.30
2019-02-17T09:07:13.962Z,39.70
2019-02-17T09:09:49.021Z,38.40
2019-02-17T09:12:24.133Z,37.60
2019-02-17T09:14:59.166Z,37.70
2019-02-17T09:20:11.728Z,38.50
2019-02-17T09:22:48.377Z,37.70
2019-02-17T09:25:23.694Z,38.10
2019-02-17T09:27:59.604Z,38.30
2019-02-17T09:33:11.046Z,38.50
2019-02-17T09:35:46.115Z,38.90
2019-02-17T09:43:32.900Z,38.90
2019-02-17T09:46:08.312Z,37.20
2019-02-17T09:48:43.520Z,37.60
2019-02-17T09:51:18.655Z,38.00
2019-02-17T09:56:28.341Z,38.50
2019-02-17T09:59:03.872Z,37.80
2019-02-17T10:01:38.904Z,38.30
2019-02-17T10:04:14.441Z,37.90
2019-02-17T10:06:49.591Z,38.00
2019-02-17T10:09:27.177Z,38.10
2019-02-17T10:12:02.216Z,39.70
2019-02-17T10:14:38.620Z,41.70
2019-02-17T10:17:14.640Z,43.50
2019-02-17T10:19:49.886Z,44.90
2019-02-17T10:22:24.913Z,45.00
2019-02-17T10:25:00.047Z,43.60
2019-02-17T10:27:35.226Z,41.40
2019-02-17T10:30:14.913Z,39.20
2019-02-17T10:35:24.675Z,35.80
2019-02-17T10:38:00.743Z,35.50
2019-02-17T10:40:36.022Z,35.00
2019-02-17T10:43:11.721Z,35.50
2019-02-17T10:45:47.994Z,36.70
2019-02-17T10:48:24.519Z,35.60
2019-02-17T10:51:00.563Z,34.90
2019-02-17T10:53:42.836Z,35.00
2019-02-17T10:56:19.517Z,35.30
2019-02-17T10:58:56.317Z,35.50
2019-02-17T11:04:18.278Z,34.70
2019-02-17T11:06:53.931Z,34.40
2019-02-17T11:09:28.986Z,33.60
2019-02-17T11:12:04.192Z,33.20
2019-02-17T11:14:40.589Z,33.40
2019-02-17T11:17:17.154Z,33.60
2019-02-17T11:19:52.364Z,34.10
2019-02-17T11:22:27.488Z,34.60
2019-02-17T11:25:03.869Z,35.00
2019-02-17T11:27:39.268Z,35.60
2019-02-17T11:30:22.004Z,36.10
2019-02-17T11:32:59.051Z,37.00
2019-02-17T11:35:34.665Z,36.90
2019-02-17T11:38:10.719Z,38.60
2019-02-17T11:40:47.035Z,39.80
2019-02-17T11:43:22.072Z,41.00
2019-02-17T11:45:57.487Z,42.20
2019-02-17T11:48:34.775Z,43.50
2019-02-17T11:51:10.730Z,43.70
2019-02-17T11:53:45.759Z,44.10
2019-02-17T11:56:23.158Z,44.50
2019-02-17T11:58:59.280Z,45.30
2019-02-17T12:01:35.369Z,45.40
2019-02-17T12:04:12.176Z,45.50
2019-02-17T12:06:47.619Z,45.20
2019-02-17T12:09:22.674Z,45.80
2019-02-17T12:11:57.750Z,46.00
2019-02-17T12:14:35.849Z,46.30
2019-02-17T12:17:12.079Z,45.70
2019-02-17T12:19:47.120Z,45.50
2019-02-17T12:22:24.082Z,46.00
2019-02-17T12:25:01.930Z,46.70
2019-02-17T12:27:42.001Z,46.20
2019-02-17T12:30:20.167Z,46.40
2019-02-17T12:32:55.579Z,46.40
2019-02-17T12:35:31.065Z,47.20
2019-02-17T12:38:10.452Z,47.20
2019-02-17T12:40:45.864Z,46.70
2019-02-17T12:43:20.980Z,46.90
2019-02-17T12:45:56.369Z,46.60
2019-02-17T12:48:31.710Z,47.30
2019-02-17T12:51:07.005Z,47.10
2019-02-17T12:53:42.149Z,47.10
2019-02-17T12:56:17.607Z,47.10
2019-02-17T12:58:53.579Z,46.80
2019-02-17T13:01:28.877Z,47.10
2019-02-17T13:04:04.875Z,47.00
2019-02-17T13:06:40.050Z,47.20
2019-02-17T13:09:17.306Z,47.30
2019-02-17T13:11:52.449Z,47.40
2019-02-17T13:14:27.902Z,47.60
2019-02-17T13:17:03.337Z,47.30
2019-02-17T13:19:41.245Z,47.40
2019-02-17T13:22:16.043Z,47.20
2019-02-17T13:24:52.093Z,47.00
2019-02-17T13:27:28.337Z,46.60
2019-02-17T13:30:03.910Z,46.70
2019-02-17T13:32:40.949Z,46.80
2019-02-17T13:35:15.975Z,46.50
2019-02-17T13:37:51.319Z,46.80
2019-02-17T13:40:26.434Z,46.50
2019-02-17T13:43:01.982Z,46.00
2019-02-17T13:45:37.354Z,46.00
2019-02-17T13:48:13.609Z,46.10
2019-02-17T13:50:51.205Z,46.40
2019-02-17T13:53:27.207Z,46.30
2019-02-17T13:56:03.884Z,46.30
2019-02-17T13:58:40.526Z,46.40
2019-02-17T14:01:17.457Z,46.90
2019-02-17T14:03:52.636Z,46.60
2019-02-17T14:06:27.843Z,46.50
2019-02-17T14:09:02.942Z,46.20
2019-02-17T14:11:40.664Z,46.10
2019-02-17T14:14:16.003Z,46.10
2019-02-17T14:16:51.488Z,46.00
2019-02-17T14:19:27.731Z,46.00
2019-02-17T14:22:04.216Z,46.40
2019-02-17T14:24:39.384Z,46.20
2019-02-17T14:27:14.997Z,46.20
2019-02-17T14:29:50.198Z,46.80
2019-02-17T14:34:59.919Z,46.50
2019-02-17T14:37:38.224Z,47.10
2019-02-17T14:40:14.639Z,47.20
2019-02-17T14:42:49.870Z,47.50
2019-02-17T14:45:25.065Z,47.60
2019-02-17T14:48:00.225Z,47.60
2019-02-17T14:50:39.350Z,47.70
2019-02-17T14:53:16.172Z,48.20
2019-02-17T14:55:51.844Z,48.30
2019-02-17T14:58:27.411Z,48.80
2019-02-17T15:06:12.849Z,49.00
2019-02-17T15:16:33.308Z,48.80
2019-02-17T15:19:08.538Z,49.10
2019-02-17T15:24:19.376Z,48.90
2019-02-17T15:26:54.869Z,49.30
2019-02-17T15:29:32.996Z,49.50
2019-02-17T15:32:08.199Z,49.60
2019-02-17T15:34:43.746Z,49.60
2019-02-17T15:37:23.123Z,49.40
2019-02-17T15:39:58.190Z,49.40
2019-02-17T15:42:34.870Z,49.80
2019-02-17T15:45:14.823Z,50.00
2019-02-17T15:47:52.337Z,50.10
2019-02-17T15:50:27.599Z,49.90
2019-02-17T15:53:03.206Z,50.00
2019-02-17T15:55:38.464Z,50.00
2019-02-17T15:58:13.673Z,50.40
2019-02-17T16:03:26.153Z,51.40
2019-02-17T16:06:01.701Z,51.00
2019-02-17T16:08:36.953Z,51.90
2019-02-17T16:11:12.599Z,51.40
2019-02-17T16:13:48.000Z,51.50
2019-02-17T16:16:24.149Z,51.60
2019-02-17T16:18:59.469Z,52.20
2019-02-17T16:21:36.132Z,52.20
2019-02-17T16:26:46.028Z,52.30
2019-02-17T16:29:21.632Z,52.90
2019-02-17T16:31:56.855Z,53.30
2019-02-17T16:34:38.577Z,54.00
2019-02-17T16:37:10.405Z,55.20
2019-02-17T16:39:45.630Z,55.10
2019-02-17T16:42:20.841Z,55.60
2019-02-17T16:44:56.035Z,55.90
2019-02-17T16:47:32.578Z,56.10
2019-02-17T16:52:45.653Z,56.40
2019-02-17T16:55:22.072Z,57.90
2019-02-17T16:57:58.850Z,58.00
2019-02-17T17:00:33.912Z,57.10
2019-02-17T17:03:09.282Z,57.20
2019-02-17T17:08:19.206Z,58.70
2019-02-17T17:10:54.386Z,58.70
2019-02-17T17:13:29.566Z,59.10
2019-02-17T17:16:05.123Z,59.20
2019-02-17T17:18:40.290Z,59.10
2019-02-17T17:21:15.807Z,59.20
2019-02-17T17:23:51.255Z,59.40
2019-02-17T17:26:26.829Z,59.70
2019-02-17T17:31:36.994Z,59.80
2019-02-17T17:36:48.412Z,60.90
2019-02-17T17:41:59.576Z,60.40
2019-02-17T17:47:11.436Z,60.90
2019-02-17T17:49:46.837Z,61.10
2019-02-17T17:52:23.825Z,61.30
2019-02-17T17:54:59.301Z,61.30
2019-02-17T17:57:34.471Z,61.80
2019-02-17T18:00:14.580Z,61.90
2019-02-17T18:05:28.849Z,61.80
2019-02-17T18:10:38.579Z,62.00
2019-02-17T18:13:13.650Z,62.90
2019-02-17T18:15:49.677Z,63.00
2019-02-17T18:18:24.910Z,64.50
2019-02-17T18:21:00.037Z,63.90
2019-02-17T18:23:35.730Z,64.20
2019-02-17T18:26:10.882Z,64.50
2019-02-17T18:28:46.889Z,64.60
2019-02-17T18:31:21.974Z,65.10
2019-02-17T18:33:57.163Z,65.20
2019-02-17T18:36:32.345Z,65.40
2019-02-17T18:44:20.515Z,67.20
2019-02-17T18:46:56.040Z,67.20
2019-02-17T18:49:32.022Z,68.00
2019-02-17T18:52:07.291Z,68.50
2019-02-17T18:54:42.464Z,68.40
2019-02-17T18:59:54.067Z,69.80
2019-02-17T19:02:29.860Z,69.50
2019-02-17T19:07:41.975Z,69.70
2019-02-17T19:10:17.257Z,70.90
2019-02-17T19:12:52.893Z,71.30
2019-02-17T19:15:28.387Z,71.90
2019-02-17T19:18:04.000Z,72.00
2019-02-17T19:20:41.423Z,72.80
2019-02-17T19:23:16.919Z,73.10
2019-02-17T19:25:52.535Z,73.90
2019-02-17T19:31:04.078Z,73.40
2019-02-17T19:36:13.955Z,74.10
2019-02-17T19:38:49.228Z,76.20
2019-02-17T19:41:24.539Z,76.20
2019-02-17T19:46:35.291Z,77.10
2019-02-17T19:59:35.283Z,73.80
2019-02-17T20:09:57.905Z,74.90
2019-02-17T20:15:10.168Z,74.70
2019-02-17T20:20:23.310Z,75.30
2019-02-17T20:22:58.971Z,75.80
2019-02-17T20:25:34.249Z,76.00
2019-02-17T20:28:09.498Z,76.00
2019-02-17T20:30:45.034Z,76.20
2019-02-17T20:33:20.382Z,76.40
2019-02-17T20:36:02.727Z,76.10
2019-02-17T20:41:08.306Z,75.50
2019-02-17T20:43:45.116Z,75.30
2019-02-17T20:48:56.111Z,75.30
2019-02-17T20:51:33.723Z,75.00
2019-02-17T20:56:43.963Z,74.40
2019-02-17T21:07:04.382Z,74.80
2019-02-17T21:09:40.308Z,74.50
2019-02-17T21:14:50.523Z,74.40
2019-02-17T21:25:12.396Z,75.80
2019-02-17T21:30:23.599Z,76.60
2019-02-17T21:35:34.458Z,75.00
2019-02-17T21:40:45.774Z,75.90
2019-02-17T21:51:08.546Z,77.30
2019-02-17T22:01:28.923Z,76.20
2019-02-17T22:09:13.366Z,77.00
2019-02-17T22:11:48.382Z,76.90
2019-02-17T22:14:23.673Z,77.20
2019-02-17T22:19:33.553Z,77.70
2019-02-17T22:32:29.032Z,76.40
2019-02-17T22:40:14.625Z,76.60
2019-02-17T22:45:24.505Z,76.90
2019-02-17T22:50:34.397Z,75.80
2019-02-17T23:06:11.099Z,76.40
2019-02-17T23:11:21.109Z,77.10
2019-02-17T23:13:56.346Z,76.50
2019-02-17T23:16:31.433Z,76.70
2019-02-17T23:21:40.973Z,76.30
2019-02-17T23:32:00.376Z,77.70
2019-02-17T23:39:44.844Z,79.10
2019-02-17T23:42:20.197Z,78.50
2019-02-17T23:44:55.565Z,78.60
2019-02-17T23:47:31.395Z,78.70
2019-02-17T23:50:08.566Z,78.70
2019-02-17T23:52:45.394Z,79.00
2019-02-17T23:55:20.421Z,79.00
2019-02-17T23:57:55.745Z,79.30
